createdAt,value
2016-10-04T00:01:39.777Z,0
2016-10-04T00:04:32.912Z,0
2016-10-04T00:05:00.995Z,0
2016-10-04T00:06:01.009Z,0
2016-10-04T00:07:01.027Z,0
2016-10-04T00:08:01.028Z,0
2016-10-04T00:09:01.032Z,0
2016-10-04T00:10:01.013Z,0
2016-10-04T00:11:01.039Z,0
2016-10-04T00:12:01.064Z,0
2016-10-04T00:13:01.042Z,0
2016-10-04T00:14:01.052Z,0
2016-10-04T00:15:01.080Z,0
2016-10-04T00:16:01.045Z,0
2016-10-04T00:17:01.045Z,0
2016-10-04T00:18:01.009Z,0
2016-10-04T00:19:01.023Z,0
2016-10-04T00:20:01.064Z,0
2016-10-04T00:21:01.037Z,0
2016-10-04T00:22:00.992Z,0
2016-10-04T00:23:01.046Z,0
2016-10-04T00:24:01.005Z,0
2016-10-04T00:25:01.010Z,0
2016-10-04T00:26:00.962Z,0
2016-10-04T00:27:01.046Z,0
2016-10-04T00:28:01.029Z,0
2016-10-04T00:29:01.032Z,0
2016-10-04T00:30:01.012Z,0
2016-10-04T00:31:01.074Z,0
2016-10-04T00:32:01.018Z,0
2016-10-04T00:33:00.983Z,0
2016-10-04T00:34:01.033Z,0
2016-10-04T00:35:00.997Z,0
2016-10-04T00:36:01.012Z,0
2016-10-04T00:37:01.024Z,0
2016-10-04T00:38:01.041Z,0
2016-10-04T00:39:01.009Z,0
2016-10-04T00:40:01.074Z,0
2016-10-04T00:41:01.061Z,0
2016-10-04T00:42:01.030Z,0
2016-10-04T00:43:01.035Z,0
2016-10-04T00:44:01.000Z,0
2016-10-04T00:45:02.027Z,0
2016-10-04T00:46:01.060Z,0
2016-10-04T00:47:01.117Z,0
2016-10-04T00:48:01.041Z,0
2016-10-04T00:49:01.030Z,0
2016-10-04T00:50:01.035Z,0
2016-10-04T00:51:01.045Z,0
2016-10-04T00:52:01.052Z,0
2016-10-04T00:53:01.038Z,0
2016-10-04T00:54:01.035Z,0
2016-10-04T00:55:01.016Z,0
2016-10-04T00:56:01.030Z,0
2016-10-04T00:57:01.059Z,0
2016-10-04T00:58:01.067Z,0
2016-10-04T00:59:01.050Z,0
2016-10-04T01:00:01.139Z,0
2016-10-04T01:01:01.046Z,0
2016-10-04T01:02:01.047Z,0
2016-10-04T01:03:01.044Z,0
2016-10-04T01:04:01.054Z,0
2016-10-04T01:05:01.113Z,0
2016-10-04T01:06:01.038Z,0
2016-10-04T01:07:01.018Z,0
2016-10-04T01:08:01.041Z,0
2016-10-04T01:09:01.053Z,0
2016-10-04T01:10:01.059Z,0
2016-10-04T01:11:01.041Z,0
2016-10-04T01:12:01.049Z,0
2016-10-04T01:13:01.041Z,0
2016-10-04T01:14:01.028Z,0
2016-10-04T01:15:01.098Z,0
2016-10-04T01:16:01.097Z,0
2016-10-04T01:17:01.048Z,0
2016-10-04T01:18:01.068Z,0
2016-10-04T01:19:01.034Z,0
2016-10-04T01:20:01.044Z,0
2016-10-04T01:21:01.064Z,0
2016-10-04T01:22:01.057Z,0
2016-10-04T01:23:01.009Z,0
2016-10-04T01:24:01.008Z,0
2016-10-04T01:25:01.049Z,0
2016-10-04T01:26:01.112Z,0
2016-10-04T01:27:01.059Z,0
2016-10-04T01:28:01.057Z,0
2016-10-04T01:29:01.088Z,0
2016-10-04T01:30:01.049Z,0
2016-10-04T01:31:01.073Z,0
2016-10-04T01:32:01.045Z,0
2016-10-04T01:33:01.066Z,0
2016-10-04T01:34:01.066Z,0
2016-10-04T01:35:01.084Z,0
2016-10-04T01:36:01.089Z,0
2016-10-04T01:37:01.068Z,0
2016-10-04T01:38:01.089Z,0
2016-10-04T01:39:01.082Z,0
2016-10-04T01:40:01.102Z,0
2016-10-04T01:41:01.116Z,0
2016-10-04T01:42:01.077Z,0
2016-10-04T01:43:01.073Z,0
2016-10-04T01:44:01.056Z,0
2016-10-04T01:45:01.127Z,0
2016-10-04T01:46:01.100Z,0
2016-10-04T01:47:01.079Z,0
2016-10-04T01:48:01.159Z,0
2016-10-04T01:49:01.066Z,0
2016-10-04T01:50:01.113Z,0
2016-10-04T01:51:01.060Z,0
2016-10-04T01:52:01.108Z,0
2016-10-04T01:53:01.062Z,0
2016-10-04T01:54:01.103Z,0
2016-10-04T01:55:01.077Z,0
2016-10-04T01:56:01.077Z,0
2016-10-04T01:57:01.074Z,0
2016-10-04T01:58:01.105Z,0
2016-10-04T01:59:01.056Z,0
2016-10-04T02:00:01.055Z,0
2016-10-04T02:01:01.047Z,0
2016-10-04T02:02:01.075Z,0
2016-10-04T02:03:01.070Z,0
2016-10-04T02:04:01.089Z,0
2016-10-04T02:05:01.127Z,0
2016-10-04T02:06:01.112Z,0
2016-10-04T02:07:01.048Z,0
2016-10-04T02:08:01.072Z,0
2016-10-04T02:09:01.074Z,0
2016-10-04T02:10:01.095Z,0
2016-10-04T02:11:01.095Z,0
2016-10-04T02:12:01.063Z,0
2016-10-04T02:13:01.160Z,0
2016-10-04T02:14:01.107Z,0
2016-10-04T02:15:01.077Z,0
2016-10-04T02:16:01.130Z,0
2016-10-04T02:17:01.087Z,0
2016-10-04T02:18:01.054Z,0
2016-10-04T02:19:01.073Z,0
2016-10-04T02:20:01.065Z,0
2016-10-04T02:21:01.101Z,0
2016-10-04T02:22:01.073Z,0
2016-10-04T02:23:01.069Z,0
2016-10-04T02:24:01.058Z,0
2016-10-04T02:25:01.079Z,0
2016-10-04T02:26:01.120Z,0
2016-10-04T02:27:01.097Z,0
2016-10-04T02:28:01.318Z,0
2016-10-04T02:29:01.077Z,0
2016-10-04T02:30:01.067Z,0
2016-10-04T02:31:01.094Z,0
2016-10-04T02:32:01.102Z,0
2016-10-04T02:33:01.455Z,0
2016-10-04T02:34:01.100Z,0
2016-10-04T02:35:01.072Z,0
2016-10-04T02:36:01.094Z,0
2016-10-04T02:37:01.085Z,0
2016-10-04T02:38:01.196Z,0
2016-10-04T02:39:01.143Z,0
2016-10-04T02:40:01.118Z,0
2016-10-04T02:41:01.130Z,0
2016-10-04T02:42:01.098Z,0
2016-10-04T02:43:01.367Z,0
2016-10-04T02:44:01.595Z,0
2016-10-04T02:45:01.304Z,0
2016-10-04T02:46:01.163Z,0
2016-10-04T02:47:01.696Z,0
2016-10-04T02:48:01.654Z,0
2016-10-04T02:49:01.193Z,0
2016-10-04T02:50:01.583Z,0
2016-10-04T02:51:01.772Z,0
2016-10-04T02:52:01.227Z,0
2016-10-04T02:53:01.124Z,0
2016-10-04T02:54:01.102Z,0
2016-10-04T02:55:01.369Z,0
2016-10-04T02:56:01.217Z,0
2016-10-04T02:57:01.520Z,0
2016-10-04T02:58:01.640Z,0
2016-10-04T02:59:01.703Z,0
2016-10-04T03:00:01.730Z,0
2016-10-04T03:01:01.312Z,0
2016-10-04T03:02:01.156Z,0
2016-10-04T03:03:01.268Z,0
2016-10-04T03:04:01.169Z,0
2016-10-04T03:05:01.191Z,0
2016-10-04T03:06:01.258Z,0
2016-10-04T03:07:01.153Z,0
2016-10-04T03:08:01.142Z,0
2016-10-04T03:09:01.167Z,0
2016-10-04T03:10:01.115Z,0
2016-10-04T03:11:01.138Z,0
2016-10-04T03:12:01.425Z,0
2016-10-04T03:13:01.482Z,0
2016-10-04T03:14:01.148Z,0
2016-10-04T03:15:01.316Z,0
2016-10-04T03:16:01.127Z,0
2016-10-04T03:17:01.100Z,0
2016-10-04T03:18:01.111Z,0
2016-10-04T03:19:01.118Z,0
2016-10-04T03:20:01.297Z,0
2016-10-04T03:21:01.128Z,0
2016-10-04T03:22:01.184Z,0
2016-10-04T03:23:01.584Z,0
2016-10-04T03:24:01.296Z,0
2016-10-04T03:25:02.001Z,0
2016-10-04T03:26:01.588Z,0
2016-10-04T03:27:01.151Z,0
2016-10-04T03:28:01.352Z,0
2016-10-04T03:29:01.163Z,0
2016-10-04T03:30:01.186Z,0
2016-10-04T03:31:01.156Z,0
2016-10-04T03:32:01.240Z,0
2016-10-04T03:33:01.207Z,0
2016-10-04T03:34:01.254Z,0
2016-10-04T03:35:01.439Z,0
2016-10-04T03:36:01.180Z,0
2016-10-04T03:37:01.213Z,0
2016-10-04T03:38:01.147Z,0
2016-10-04T03:39:01.302Z,0
2016-10-04T03:40:01.191Z,0
2016-10-04T03:41:01.350Z,0
2016-10-04T03:42:01.174Z,0
2016-10-04T03:43:01.162Z,0
2016-10-04T03:44:01.523Z,0
2016-10-04T03:45:01.106Z,0
2016-10-04T03:46:01.198Z,0
2016-10-04T03:47:01.179Z,0
2016-10-04T03:48:01.143Z,0
2016-10-04T03:49:01.395Z,0
2016-10-04T03:50:01.270Z,0
2016-10-04T03:51:01.212Z,0
2016-10-04T03:52:01.226Z,0
2016-10-04T03:53:01.182Z,0
2016-10-04T03:54:01.200Z,0
2016-10-04T03:55:01.194Z,0
2016-10-04T03:56:01.180Z,0
2016-10-04T03:57:01.181Z,0
2016-10-04T03:58:01.165Z,0
2016-10-04T03:59:01.174Z,0
2016-10-04T04:00:01.144Z,0
2016-10-04T04:01:01.157Z,0
2016-10-04T04:02:01.220Z,0
2016-10-04T04:03:01.158Z,0
2016-10-04T04:04:01.235Z,0
2016-10-04T04:05:01.204Z,0
2016-10-04T04:06:01.214Z,0
2016-10-04T04:07:01.206Z,0
2016-10-04T04:08:01.156Z,0
2016-10-04T04:09:01.162Z,0
2016-10-04T04:10:01.168Z,0
2016-10-04T04:11:01.162Z,0
2016-10-04T04:12:01.189Z,0
2016-10-04T04:13:01.158Z,0
2016-10-04T04:14:01.169Z,0
2016-10-04T04:15:01.165Z,0
2016-10-04T04:16:01.207Z,0
2016-10-04T04:17:01.191Z,0
2016-10-04T04:18:01.163Z,0
2016-10-04T04:19:01.183Z,0
2016-10-04T04:20:01.178Z,0
2016-10-04T04:21:01.205Z,0
2016-10-04T04:22:01.240Z,0
2016-10-04T04:23:01.173Z,0
2016-10-04T04:24:01.159Z,0
2016-10-04T04:25:01.216Z,0
2016-10-04T04:26:01.202Z,0
2016-10-04T04:27:01.230Z,0
2016-10-04T04:28:01.251Z,0
2016-10-04T04:29:01.205Z,0
2016-10-04T04:30:01.187Z,0
2016-10-04T04:31:01.215Z,0
2016-10-04T04:32:01.215Z,0
2016-10-04T04:33:01.227Z,0
2016-10-04T04:34:01.216Z,0
2016-10-04T04:35:01.197Z,0
2016-10-04T04:36:01.174Z,0
2016-10-04T04:37:01.274Z,0
2016-10-04T04:38:01.183Z,0
2016-10-04T04:39:01.209Z,0
2016-10-04T04:40:01.165Z,0
2016-10-04T04:41:01.171Z,0
2016-10-04T04:42:02.134Z,0
2016-10-04T04:43:01.288Z,0
2016-10-04T04:44:01.207Z,0
2016-10-04T04:45:01.188Z,0
2016-10-04T04:46:01.168Z,0
2016-10-04T04:47:01.213Z,0
2016-10-04T04:48:01.227Z,0
2016-10-04T04:49:01.242Z,0
2016-10-04T04:50:01.233Z,0
2016-10-04T04:51:01.285Z,0
2016-10-04T04:52:01.230Z,0
2016-10-04T04:53:01.208Z,0
2016-10-04T04:54:01.293Z,0
2016-10-04T04:55:01.194Z,0
2016-10-04T04:56:01.236Z,0
2016-10-04T04:57:01.223Z,0
2016-10-04T04:58:01.230Z,0
2016-10-04T04:59:01.211Z,0
2016-10-04T05:00:01.207Z,0
2016-10-04T05:01:01.205Z,0
2016-10-04T05:02:01.249Z,0
2016-10-04T05:03:01.261Z,0
2016-10-04T05:04:01.186Z,0
2016-10-04T05:05:01.212Z,0
2016-10-04T05:06:01.264Z,0
2016-10-04T05:07:01.211Z,0
2016-10-04T05:08:01.243Z,0
2016-10-04T05:09:01.221Z,0
2016-10-04T05:10:01.257Z,0
2016-10-04T05:11:01.221Z,0
2016-10-04T05:12:01.311Z,0
2016-10-04T05:13:01.233Z,0
2016-10-04T05:14:01.272Z,0
2016-10-04T05:15:01.254Z,0
2016-10-04T05:16:01.322Z,0
2016-10-04T05:17:01.509Z,0
2016-10-04T05:18:01.251Z,0
2016-10-04T05:19:01.212Z,0
2016-10-04T05:20:01.250Z,0
2016-10-04T05:21:01.194Z,0
2016-10-04T05:22:01.261Z,0
2016-10-04T05:23:01.244Z,0
2016-10-04T05:24:01.372Z,0
2016-10-04T05:25:01.314Z,0
2016-10-04T05:26:01.597Z,0
2016-10-04T05:27:01.594Z,0
2016-10-04T05:28:01.450Z,0
2016-10-04T05:29:01.239Z,0
2016-10-04T05:30:01.515Z,0
2016-10-04T05:31:01.320Z,0
2016-10-04T05:32:01.301Z,0
2016-10-04T05:33:01.276Z,0
2016-10-04T05:34:01.392Z,0
2016-10-04T05:35:01.244Z,0
2016-10-04T05:36:01.180Z,0
2016-10-04T05:37:01.306Z,0
2016-10-04T05:38:01.325Z,0
2016-10-04T05:39:01.273Z,5
2016-10-04T05:40:01.278Z,5
2016-10-04T05:41:01.226Z,5
2016-10-04T05:42:01.243Z,5
2016-10-04T05:43:01.324Z,5
2016-10-04T05:44:01.258Z,5
2016-10-04T05:45:01.296Z,10
2016-10-04T05:46:01.307Z,10
2016-10-04T05:47:01.241Z,10
2016-10-04T05:48:01.253Z,10
2016-10-04T05:49:01.246Z,15
2016-10-04T05:50:01.297Z,15
2016-10-04T05:51:01.929Z,15
2016-10-04T05:52:01.316Z,20
2016-10-04T05:53:01.343Z,20
2016-10-04T05:54:01.330Z,20
2016-10-04T05:55:01.339Z,20
2016-10-04T05:56:01.385Z,25
2016-10-04T05:57:01.313Z,25
2016-10-04T05:58:01.396Z,25
2016-10-04T05:59:01.394Z,25
2016-10-04T06:00:01.345Z,25
2016-10-04T06:01:01.392Z,30
2016-10-04T06:02:01.310Z,30
2016-10-04T06:03:01.380Z,30
2016-10-04T06:04:01.327Z,30
2016-10-04T06:05:01.406Z,30
2016-10-04T06:06:01.282Z,30
2016-10-04T06:07:01.267Z,30
2016-10-04T06:08:01.272Z,30
2016-10-04T06:09:01.280Z,30
2016-10-04T06:10:01.233Z,30
2016-10-04T06:11:01.241Z,35
2016-10-04T06:12:01.292Z,35
2016-10-04T06:13:01.284Z,40
2016-10-04T06:14:01.367Z,45
2016-10-04T06:15:01.315Z,45
2016-10-04T06:16:01.345Z,50
2016-10-04T06:17:01.264Z,55
2016-10-04T06:18:01.307Z,55
2016-10-04T06:19:01.332Z,60
2016-10-04T06:20:01.284Z,60
2016-10-04T06:21:01.307Z,60
2016-10-04T06:22:01.300Z,60
2016-10-04T06:23:01.333Z,60
2016-10-04T06:24:01.266Z,60
2016-10-04T06:25:01.307Z,55
2016-10-04T06:26:01.357Z,55
2016-10-04T06:27:01.339Z,55
2016-10-04T06:28:01.362Z,60
2016-10-04T06:29:01.354Z,60
2016-10-04T06:30:01.287Z,60
2016-10-04T06:31:01.261Z,60
2016-10-04T06:32:01.341Z,60
2016-10-04T06:33:01.292Z,60
2016-10-04T06:34:01.282Z,60
2016-10-04T06:35:01.286Z,65
2016-10-04T06:36:01.266Z,70
2016-10-04T06:37:01.253Z,70
2016-10-04T06:38:01.278Z,70
2016-10-04T06:39:01.269Z,70
2016-10-04T06:40:01.260Z,70
2016-10-04T06:41:01.302Z,75
2016-10-04T06:42:01.283Z,75
2016-10-04T06:43:01.398Z,75
2016-10-04T06:44:01.383Z,75
2016-10-04T06:45:01.333Z,75
2016-10-04T06:46:01.318Z,75
2016-10-04T06:47:01.417Z,75
2016-10-04T06:48:01.385Z,75
2016-10-04T06:49:01.418Z,75
2016-10-04T06:50:01.341Z,80
2016-10-04T06:51:01.319Z,80
2016-10-04T06:52:01.346Z,90
2016-10-04T06:53:01.380Z,100
2016-10-04T06:54:01.320Z,95
2016-10-04T06:55:01.381Z,105
2016-10-04T06:56:01.316Z,110
2016-10-04T06:57:01.340Z,115
2016-10-04T06:58:01.376Z,110
2016-10-04T06:59:01.352Z,110
2016-10-04T07:00:01.333Z,115
2016-10-04T07:01:01.331Z,110
2016-10-04T07:02:01.371Z,120
2016-10-04T07:03:01.305Z,110
2016-10-04T07:04:01.340Z,110
2016-10-04T07:05:02.012Z,105
2016-10-04T07:06:01.299Z,115
2016-10-04T07:07:01.331Z,105
2016-10-04T07:08:01.387Z,110
2016-10-04T07:09:01.476Z,115
2016-10-04T07:10:01.312Z,125
2016-10-04T07:11:01.403Z,135
2016-10-04T07:12:01.362Z,140
2016-10-04T07:13:01.344Z,140
2016-10-04T07:14:01.384Z,145
2016-10-04T07:15:01.399Z,140
2016-10-04T07:16:01.381Z,140
2016-10-04T07:17:01.329Z,125
2016-10-04T07:18:01.353Z,130
2016-10-04T07:19:01.346Z,125
2016-10-04T07:20:01.380Z,120
2016-10-04T07:21:01.353Z,115
2016-10-04T07:22:01.347Z,100
2016-10-04T07:23:01.357Z,95
2016-10-04T07:24:01.319Z,100
2016-10-04T07:25:01.384Z,100
2016-10-04T07:26:01.377Z,100
2016-10-04T07:27:01.341Z,105
2016-10-04T07:28:01.555Z,100
2016-10-04T07:29:01.349Z,100
2016-10-04T07:30:01.367Z,100
2016-10-04T07:31:01.333Z,100
2016-10-04T07:32:01.312Z,100
2016-10-04T07:33:01.325Z,100
2016-10-04T07:34:01.345Z,100
2016-10-04T07:35:01.350Z,100
2016-10-04T07:36:01.312Z,105
2016-10-04T07:37:01.364Z,105
2016-10-04T07:38:01.368Z,105
2016-10-04T07:39:01.421Z,105
2016-10-04T07:40:01.393Z,105
2016-10-04T07:41:01.390Z,105
2016-10-04T07:42:01.358Z,100
2016-10-04T07:43:01.392Z,100
2016-10-04T07:44:01.315Z,105
2016-10-04T07:45:01.333Z,100
2016-10-04T07:46:01.400Z,105
2016-10-04T07:47:01.351Z,105
2016-10-04T07:48:01.375Z,105
2016-10-04T07:49:01.350Z,100
2016-10-04T07:50:01.365Z,105
2016-10-04T07:51:01.430Z,105
2016-10-04T07:52:01.468Z,105
2016-10-04T07:53:01.379Z,105
2016-10-04T07:54:01.402Z,105
2016-10-04T07:55:01.403Z,110
2016-10-04T07:56:01.398Z,105
2016-10-04T07:57:01.440Z,110
2016-10-04T07:58:01.418Z,110
2016-10-04T07:59:01.555Z,110
2016-10-04T08:00:01.383Z,130
2016-10-04T08:01:01.406Z,120
2016-10-04T08:02:01.560Z,120
2016-10-04T08:03:01.888Z,120
2016-10-04T08:04:01.351Z,125
2016-10-04T08:05:01.353Z,140
2016-10-04T08:06:01.367Z,120
2016-10-04T08:07:01.348Z,140
2016-10-04T08:08:01.358Z,130
2016-10-04T08:09:01.399Z,145
2016-10-04T08:10:01.355Z,180
2016-10-04T08:11:01.799Z,145
2016-10-04T08:12:01.645Z,140
2016-10-04T08:13:01.585Z,165
2016-10-04T08:14:01.413Z,200
2016-10-04T08:15:01.590Z,220
2016-10-04T08:16:01.603Z,235
2016-10-04T08:17:02.630Z,195
2016-10-04T08:18:01.459Z,165
2016-10-04T08:19:01.742Z,175
2016-10-04T08:20:01.819Z,160
2016-10-04T08:21:01.712Z,175
2016-10-04T08:22:01.472Z,160
2016-10-04T08:23:01.406Z,145
2016-10-04T08:24:01.739Z,140
2016-10-04T08:25:01.444Z,145
2016-10-04T08:26:01.423Z,150
2016-10-04T08:27:01.453Z,130
2016-10-04T08:28:01.415Z,140
2016-10-04T08:29:01.485Z,140
2016-10-04T08:30:01.479Z,145
2016-10-04T08:31:01.435Z,130
2016-10-04T08:32:01.399Z,155
2016-10-04T08:33:01.467Z,145
2016-10-04T08:34:01.451Z,120
2016-10-04T08:35:01.603Z,135
2016-10-04T08:36:01.432Z,160
2016-10-04T08:37:01.478Z,155
2016-10-04T08:38:01.430Z,160
2016-10-04T08:39:01.467Z,190
2016-10-04T08:40:01.425Z,130
2016-10-04T08:41:01.475Z,130
2016-10-04T08:42:01.751Z,150
2016-10-04T08:43:01.534Z,130
2016-10-04T08:44:01.589Z,150
2016-10-04T08:45:01.532Z,150
2016-10-04T08:46:01.454Z,175
2016-10-04T08:47:01.495Z,140
2016-10-04T08:48:01.740Z,150
2016-10-04T08:49:01.472Z,125
2016-10-04T08:50:01.520Z,130
2016-10-04T08:51:01.498Z,155
2016-10-04T08:52:01.418Z,145
2016-10-04T08:53:01.953Z,130
2016-10-04T08:54:01.461Z,155
2016-10-04T08:55:01.893Z,220
2016-10-04T08:56:01.458Z,215
2016-10-04T08:57:01.467Z,155
2016-10-04T08:58:01.477Z,205
2016-10-04T08:59:01.422Z,200
2016-10-04T09:00:01.468Z,180
2016-10-04T09:01:01.418Z,180
2016-10-04T09:02:01.446Z,180
2016-10-04T09:03:01.451Z,155
2016-10-04T09:04:02.200Z,185
2016-10-04T09:05:01.451Z,180
2016-10-04T09:06:01.834Z,150
2016-10-04T09:07:01.583Z,150
2016-10-04T09:08:01.619Z,150
2016-10-04T09:09:01.471Z,145
2016-10-04T09:10:01.650Z,140
2016-10-04T09:11:01.504Z,150
2016-10-04T09:12:01.456Z,155
2016-10-04T09:13:01.450Z,160
2016-10-04T09:14:01.485Z,185
2016-10-04T09:15:01.544Z,220
2016-10-04T09:16:01.478Z,215
2016-10-04T09:17:01.430Z,185
2016-10-04T09:18:01.455Z,130
2016-10-04T09:19:01.497Z,140
2016-10-04T09:20:01.468Z,135
2016-10-04T09:21:01.446Z,135
2016-10-04T09:22:01.503Z,145
2016-10-04T09:23:01.491Z,160
2016-10-04T09:24:01.501Z,165
2016-10-04T09:25:01.506Z,180
2016-10-04T09:26:01.591Z,200
2016-10-04T09:27:01.517Z,130
2016-10-04T09:28:01.454Z,130
2016-10-04T09:29:01.494Z,130
2016-10-04T09:30:01.494Z,135
2016-10-04T09:31:01.511Z,150
2016-10-04T09:32:01.564Z,170
2016-10-04T09:33:01.516Z,165
2016-10-04T09:34:01.490Z,190
2016-10-04T09:35:01.514Z,175
2016-10-04T09:36:01.530Z,190
2016-10-04T09:37:01.470Z,205
2016-10-04T09:38:01.507Z,180
2016-10-04T09:39:01.485Z,175
2016-10-04T09:40:01.564Z,155
2016-10-04T09:41:01.524Z,155
2016-10-04T09:42:01.541Z,165
2016-10-04T09:43:01.539Z,160
2016-10-04T09:44:01.546Z,180
2016-10-04T09:45:01.505Z,175
2016-10-04T09:46:01.542Z,200
2016-10-04T09:47:01.504Z,185
2016-10-04T09:48:01.549Z,185
2016-10-04T09:49:01.558Z,220
2016-10-04T09:50:01.524Z,225
2016-10-04T09:51:01.472Z,185
2016-10-04T09:52:01.508Z,160
2016-10-04T09:53:01.507Z,180
2016-10-04T09:54:01.518Z,230
2016-10-04T09:55:01.517Z,240
2016-10-04T09:56:01.553Z,215
2016-10-04T09:57:01.546Z,250
2016-10-04T09:58:01.493Z,235
2016-10-04T09:59:01.528Z,260
2016-10-04T10:00:01.489Z,210
2016-10-04T10:01:01.570Z,225
2016-10-04T10:02:01.486Z,245
2016-10-04T10:03:01.513Z,225
2016-10-04T10:04:01.537Z,210
2016-10-04T10:05:01.509Z,220
2016-10-04T10:06:01.489Z,250
2016-10-04T10:07:01.525Z,250
2016-10-04T10:08:01.516Z,240
2016-10-04T10:09:01.492Z,245
2016-10-04T10:10:01.516Z,290
2016-10-04T10:11:01.554Z,310
2016-10-04T10:12:01.524Z,300
2016-10-04T10:13:01.536Z,270
2016-10-04T10:14:01.551Z,315
2016-10-04T10:15:01.491Z,320
2016-10-04T10:16:01.499Z,300
2016-10-04T10:17:01.475Z,260
2016-10-04T10:18:01.522Z,195
2016-10-04T10:19:01.514Z,245
2016-10-04T10:20:01.483Z,215
2016-10-04T10:21:01.486Z,195
2016-10-04T10:22:01.502Z,240
2016-10-04T10:23:01.567Z,290
2016-10-04T10:24:01.510Z,310
2016-10-04T10:25:01.517Z,325
2016-10-04T10:26:01.535Z,320
2016-10-04T10:27:01.572Z,285
2016-10-04T10:28:01.510Z,225
2016-10-04T10:29:01.534Z,255
2016-10-04T10:30:01.511Z,255
2016-10-04T10:31:01.481Z,250
2016-10-04T10:32:01.531Z,280
2016-10-04T10:33:01.541Z,275
2016-10-04T10:34:01.486Z,255
2016-10-04T10:35:01.492Z,305
2016-10-04T10:36:01.515Z,320
2016-10-04T10:37:01.507Z,305
2016-10-04T10:38:01.548Z,285
2016-10-04T10:39:01.507Z,270
2016-10-04T10:40:01.530Z,270
2016-10-04T10:41:01.591Z,270
2016-10-04T10:42:01.530Z,270
2016-10-04T10:43:01.553Z,275
2016-10-04T10:44:01.617Z,290
2016-10-04T10:45:01.538Z,265
2016-10-04T10:46:01.558Z,230
2016-10-04T10:47:01.536Z,200
2016-10-04T10:48:02.083Z,185
2016-10-04T10:49:01.534Z,170
2016-10-04T10:50:01.539Z,165
2016-10-04T10:51:01.514Z,135
2016-10-04T10:52:01.562Z,130
2016-10-04T10:53:01.528Z,125
2016-10-04T10:54:01.633Z,130
2016-10-04T10:55:01.600Z,135
2016-10-04T10:56:01.627Z,140
2016-10-04T10:57:01.560Z,155
2016-10-04T10:58:01.561Z,185
2016-10-04T10:59:01.555Z,225
2016-10-04T11:00:01.549Z,265
2016-10-04T11:01:01.662Z,295
2016-10-04T11:02:01.680Z,325
2016-10-04T11:03:01.567Z,310
2016-10-04T11:04:01.619Z,280
2016-10-04T11:05:01.590Z,260
2016-10-04T11:06:01.565Z,235
2016-10-04T11:07:01.619Z,220
2016-10-04T11:08:01.600Z,195
2016-10-04T11:09:01.689Z,195
2016-10-04T11:10:01.555Z,175
2016-10-04T11:11:01.568Z,165
2016-10-04T11:12:01.559Z,180
2016-10-04T11:13:01.550Z,140
2016-10-04T11:14:01.604Z,140
2016-10-04T11:15:01.557Z,140
2016-10-04T11:16:01.602Z,140
2016-10-04T11:17:01.589Z,145
2016-10-04T11:18:01.559Z,155
2016-10-04T11:19:01.621Z,140
2016-10-04T11:20:01.607Z,140
2016-10-04T11:21:01.560Z,135
2016-10-04T11:22:02.386Z,140
2016-10-04T11:23:01.665Z,140
2016-10-04T11:24:01.705Z,135
2016-10-04T11:25:01.597Z,145
2016-10-04T11:26:01.660Z,165
2016-10-04T11:27:01.595Z,185
2016-10-04T11:28:01.596Z,215
2016-10-04T11:29:01.610Z,195
2016-10-04T11:30:01.606Z,185
2016-10-04T11:31:01.620Z,175
2016-10-04T11:32:01.588Z,160
2016-10-04T11:33:01.617Z,145
2016-10-04T11:34:01.647Z,160
2016-10-04T11:35:01.662Z,185
2016-10-04T11:36:01.588Z,150
2016-10-04T11:37:01.616Z,165
2016-10-04T11:38:01.740Z,155
2016-10-04T11:39:01.622Z,145
2016-10-04T11:40:01.613Z,135
2016-10-04T11:41:01.587Z,140
2016-10-04T11:42:01.591Z,145
2016-10-04T11:43:01.655Z,150
2016-10-04T11:44:01.619Z,160
2016-10-04T11:45:01.620Z,185
2016-10-04T11:46:01.565Z,200
2016-10-04T11:47:02.075Z,215
2016-10-04T11:48:01.739Z,235
2016-10-04T11:49:01.646Z,215
2016-10-04T11:50:01.590Z,225
2016-10-04T11:51:01.639Z,260
2016-10-04T11:52:01.787Z,240
2016-10-04T11:53:01.688Z,265
2016-10-04T11:54:01.689Z,285
2016-10-04T11:55:01.618Z,285
2016-10-04T11:56:01.620Z,230
2016-10-04T11:57:01.646Z,195
2016-10-04T11:58:01.605Z,205
2016-10-04T11:59:01.635Z,215
2016-10-04T12:00:01.604Z,245
2016-10-04T12:01:01.737Z,215
2016-10-04T12:02:01.633Z,195
2016-10-04T12:03:01.659Z,185
2016-10-04T12:04:01.751Z,195
2016-10-04T12:05:01.741Z,255
2016-10-04T12:06:01.770Z,270
2016-10-04T12:07:01.685Z,215
2016-10-04T12:08:01.660Z,210
2016-10-04T12:09:01.649Z,205
2016-10-04T12:10:01.659Z,185
2016-10-04T12:11:01.616Z,215
2016-10-04T12:12:01.665Z,225
2016-10-04T12:13:01.626Z,230
2016-10-04T12:14:01.903Z,230
2016-10-04T12:15:01.618Z,195
2016-10-04T12:16:01.620Z,180
2016-10-04T12:17:01.660Z,160
2016-10-04T12:18:01.608Z,145
2016-10-04T12:19:01.652Z,150
2016-10-04T12:20:01.665Z,175
2016-10-04T12:21:01.671Z,205
2016-10-04T12:22:01.648Z,190
2016-10-04T12:23:01.622Z,170
2016-10-04T12:24:01.642Z,175
2016-10-04T12:25:01.678Z,180
2016-10-04T12:26:01.617Z,175
2016-10-04T12:27:01.617Z,190
2016-10-04T12:28:01.620Z,210
2016-10-04T12:29:01.659Z,210
2016-10-04T12:30:01.655Z,230
2016-10-04T12:31:01.649Z,230
2016-10-04T12:32:01.678Z,220
2016-10-04T12:33:01.752Z,185
2016-10-04T12:34:01.671Z,175
2016-10-04T12:35:01.630Z,175
2016-10-04T12:36:01.641Z,180
2016-10-04T12:37:01.694Z,170
2016-10-04T12:38:01.700Z,160
2016-10-04T12:39:01.635Z,140
2016-10-04T12:40:01.700Z,140
2016-10-04T12:41:01.678Z,145
2016-10-04T12:42:01.658Z,155
2016-10-04T12:43:01.674Z,150
2016-10-04T12:44:01.757Z,155
2016-10-04T12:45:01.616Z,170
2016-10-04T12:46:01.663Z,195
2016-10-04T12:47:01.642Z,220
2016-10-04T12:48:01.646Z,240
2016-10-04T12:49:01.683Z,200
2016-10-04T12:50:01.805Z,175
2016-10-04T12:51:01.675Z,145
2016-10-04T12:52:01.762Z,135
2016-10-04T12:53:01.683Z,135
2016-10-04T12:54:01.684Z,130
2016-10-04T12:55:01.700Z,125
2016-10-04T12:56:01.795Z,125
2016-10-04T12:57:01.681Z,130
2016-10-04T12:58:01.706Z,130
2016-10-04T12:59:01.746Z,130
2016-10-04T13:00:01.702Z,130
2016-10-04T13:01:01.667Z,130
2016-10-04T13:02:01.643Z,135
2016-10-04T13:03:01.621Z,150
2016-10-04T13:04:01.703Z,175
2016-10-04T13:05:01.729Z,210
2016-10-04T13:06:01.613Z,240
2016-10-04T13:07:02.005Z,245
2016-10-04T13:08:01.718Z,245
2016-10-04T13:09:02.501Z,245
2016-10-04T13:10:01.975Z,245
2016-10-04T13:11:01.701Z,260
2016-10-04T13:12:01.728Z,235
2016-10-04T13:13:01.674Z,215
2016-10-04T13:14:01.698Z,210
2016-10-04T13:15:01.703Z,220
2016-10-04T13:16:01.724Z,210
2016-10-04T13:17:01.701Z,190
2016-10-04T13:18:01.793Z,185
2016-10-04T13:19:01.865Z,170
2016-10-04T13:20:01.810Z,150
2016-10-04T13:21:01.732Z,155
2016-10-04T13:22:01.806Z,160
2016-10-04T13:23:01.800Z,150
2016-10-04T13:24:01.892Z,140
2016-10-04T13:25:01.758Z,145
2016-10-04T13:26:01.806Z,150
2016-10-04T13:27:01.716Z,150
2016-10-04T13:28:01.733Z,155
2016-10-04T13:29:01.723Z,160
2016-10-04T13:30:01.689Z,145
2016-10-04T13:31:01.709Z,140
2016-10-04T13:32:01.752Z,140
2016-10-04T13:33:01.838Z,145
2016-10-04T13:34:01.928Z,145
2016-10-04T13:35:01.825Z,145
2016-10-04T13:36:01.797Z,150
2016-10-04T13:37:01.727Z,155
2016-10-04T13:38:01.747Z,145
2016-10-04T13:39:02.034Z,160
2016-10-04T13:40:01.998Z,180
2016-10-04T13:41:02.121Z,190
2016-10-04T13:42:01.925Z,200
2016-10-04T13:43:02.075Z,200
2016-10-04T13:44:02.359Z,195
2016-10-04T13:45:02.003Z,175
2016-10-04T13:46:02.037Z,150
2016-10-04T13:47:02.424Z,120
2016-10-04T13:48:02.460Z,110
2016-10-04T13:49:02.013Z,105
2016-10-04T13:50:02.316Z,105
2016-10-04T13:51:02.068Z,100
2016-10-04T13:52:01.915Z,100
2016-10-04T13:53:01.804Z,100
2016-10-04T13:54:02.361Z,105
2016-10-04T13:55:01.827Z,100
2016-10-04T13:56:01.704Z,100
2016-10-04T13:57:01.725Z,100
2016-10-04T13:58:01.732Z,105
2016-10-04T13:59:01.823Z,110
2016-10-04T14:00:01.736Z,105
2016-10-04T14:01:01.714Z,105
2016-10-04T14:02:01.757Z,105
2016-10-04T14:03:02.125Z,110
2016-10-04T14:04:01.960Z,125
2016-10-04T14:05:01.763Z,115
2016-10-04T14:06:01.769Z,130
2016-10-04T14:07:02.787Z,135
2016-10-04T14:08:01.720Z,150
2016-10-04T14:09:01.766Z,140
2016-10-04T14:10:01.734Z,145
2016-10-04T14:11:01.734Z,155
2016-10-04T14:12:01.734Z,165
2016-10-04T14:13:01.730Z,170
2016-10-04T14:14:01.833Z,165
2016-10-04T14:15:01.776Z,160